createdAt,value
2022-10-30T09:28:52.700Z,1124.00
2022-10-30T09:29:52.646Z,1108.00
2022-10-30T09:31:56.568Z,1116.00
2022-10-30T09:32:57.050Z,1128.00
2022-10-30T09:35:00.436Z,1152.00
2022-10-30T09:36:00.392Z,1152.00
2022-10-30T09:38:04.296Z,1168.00
2022-10-30T09:39:04.265Z,1172.00
2022-10-30T09:41:08.181Z,1196.00
2022-10-30T09:42:08.129Z,1212.00
2022-10-30T09:44:12.051Z,1248.00
2022-10-30T09:47:19.447Z,1280.00
2022-10-30T09:48:15.878Z,1292.00
2022-10-30T09:50:19.790Z,1320.00
2022-10-30T09:51:19.745Z,1340.00
2022-10-30T09:53:23.664Z,1372.00
2022-10-30T09:54:23.618Z,1372.00
2022-10-30T09:56:16.450Z,1476.00
2022-10-30T09:57:16.415Z,1536.00
2022-10-30T09:59:20.332Z,1596.00
2022-10-30T10:00:20.294Z,1640.00
2022-10-30T10:02:24.347Z,1740.00
2022-10-30T10:03:24.159Z,1756.00
2022-10-30T10:05:28.100Z,1736.00
2022-10-30T10:06:28.036Z,1776.00
2022-10-30T10:08:31.951Z,1864.00
2022-10-30T10:09:32.003Z,1712.00
2022-10-30T10:11:36.426Z,1880.00
2022-10-30T10:12:35.977Z,2060.00
2022-10-30T10:14:39.897Z,1972.00
2022-10-30T10:15:39.849Z,2040.00
2022-10-30T10:17:43.778Z,2316.00
2022-10-30T10:18:43.727Z,2376.00
2022-10-30T10:20:47.656Z,2336.00
2022-10-30T10:21:47.599Z,2272.00
2022-10-30T10:23:52.531Z,2208.00
2022-10-30T10:24:52.485Z,2284.00
2022-10-30T10:26:45.322Z,2412.00
2022-10-30T10:27:45.290Z,2604.00
2022-10-30T10:29:49.223Z,2864.00
2022-10-30T10:30:49.194Z,2876.00
2022-10-30T10:32:53.149Z,2884.00
2022-10-30T10:33:55.254Z,2868.00
2022-10-30T10:35:46.157Z,3324.00
2022-10-30T10:36:45.864Z,2744.00
2022-10-30T10:38:49.762Z,3392.00
2022-10-30T10:39:49.740Z,3432.00
2022-10-30T10:41:53.941Z,3636.00
2022-10-30T10:42:53.608Z,3572.00
2022-10-30T10:44:57.615Z,3952.00
2022-10-30T10:45:57.585Z,4124.00
2022-10-30T10:48:01.965Z,4208.00
2022-10-30T10:49:01.456Z,3824.00
2022-10-30T10:51:05.371Z,3852.00
2022-10-30T10:52:05.331Z,3988.00
2022-10-30T10:54:09.259Z,3448.00
2022-10-30T10:55:09.217Z,3148.00
2022-10-30T10:57:13.127Z,2444.00
2022-10-30T10:58:13.092Z,2676.00
2022-10-30T11:00:17.022Z,3500.00
2022-10-30T11:01:17.093Z,3856.00
2022-10-30T11:03:20.895Z,3884.00
2022-10-30T11:04:20.855Z,3888.00
2022-10-30T11:06:13.716Z,3984.00
2022-10-30T11:07:13.666Z,4168.00
2022-10-30T11:09:17.576Z,4120.00
2022-10-30T11:10:17.545Z,4312.00
2022-10-30T11:12:21.608Z,4236.00
2022-10-30T11:13:21.559Z,4524.00
2022-10-30T11:15:25.485Z,4932.00
2022-10-30T11:16:25.449Z,5252.00
2022-10-30T11:18:29.382Z,4664.00
2022-10-30T11:19:29.323Z,5580.00
2022-10-30T11:21:33.316Z,5932.00
2022-10-30T11:22:33.281Z,5792.00
2022-10-30T11:24:37.209Z,5656.00
2022-10-30T11:25:37.166Z,5604.00
2022-10-30T11:27:41.083Z,5764.00
2022-10-30T11:28:41.045Z,5876.00
2022-10-30T11:30:44.974Z,6176.00
2022-10-30T11:31:44.932Z,6108.00
2022-10-30T11:33:48.870Z,5352.00
2022-10-30T11:34:48.812Z,5268.00
2022-10-30T11:36:41.654Z,5640.00
2022-10-30T11:37:41.619Z,5016.00
2022-10-30T11:39:45.563Z,4160.00
2022-10-30T11:40:45.512Z,4416.00
2022-10-30T11:42:49.449Z,4272.00
2022-10-30T11:43:49.402Z,4040.00
2022-10-30T11:45:53.316Z,3832.00
2022-10-30T11:46:53.280Z,4280.00
2022-10-30T11:48:57.262Z,4276.00
2022-10-30T11:49:57.219Z,4312.00
2022-10-30T11:52:01.142Z,3696.00
2022-10-30T11:53:01.103Z,3472.00
2022-10-30T11:55:05.014Z,3632.00
2022-10-30T11:56:04.985Z,3776.00
2022-10-30T11:58:08.918Z,3944.00
2022-10-30T11:59:08.871Z,4148.00
2022-10-30T12:01:12.800Z,4148.00
2022-10-30T12:02:12.849Z,4208.00
2022-10-30T12:04:16.669Z,3904.00
2022-10-30T12:05:16.633Z,4236.00
2022-10-30T12:07:20.563Z,4048.00
2022-10-30T12:08:20.515Z,4428.00
2022-10-30T12:10:24.434Z,4260.00
2022-10-30T12:11:24.398Z,4368.00
2022-10-30T12:13:28.338Z,4684.00
2022-10-30T12:14:28.287Z,4640.00
2022-10-30T12:16:21.160Z,4596.00
2022-10-30T12:17:21.101Z,4252.00
2022-10-30T12:19:25.025Z,3620.00
2022-10-30T12:20:24.986Z,3540.00
2022-10-30T12:22:28.915Z,3512.00
2022-10-30T12:23:28.879Z,3716.00
2022-10-30T12:25:33.031Z,3636.00
2022-10-30T12:26:32.794Z,3600.00
2022-10-30T12:28:36.718Z,3284.00
2022-10-30T12:30:02.676Z,2996.00
2022-10-30T12:31:40.813Z,3152.00
2022-10-30T12:32:40.567Z,3312.00
2022-10-30T12:34:44.503Z,3236.00
2022-10-30T12:35:44.527Z,3124.00
2022-10-30T12:37:48.411Z,3588.00
2022-10-30T12:38:48.509Z,3728.00
2022-10-30T12:40:52.397Z,3872.00
2022-10-30T12:41:52.287Z,3892.00
2022-10-30T12:43:56.727Z,4036.00
2022-10-30T12:44:56.678Z,3880.00
2022-10-30T12:47:00.606Z,3724.00
2022-10-30T12:48:01.029Z,3724.00
2022-10-30T12:51:04.453Z,4000.00
2022-10-30T12:53:08.393Z,4332.00
2022-10-30T12:54:08.339Z,4376.00
2022-10-30T12:56:01.206Z,4816.00
2022-10-30T12:57:01.161Z,4672.00
2022-10-30T12:59:05.111Z,4292.00
2022-10-30T13:00:05.081Z,4356.00
2022-10-30T13:02:09.055Z,4176.00
2022-10-30T13:03:08.932Z,3844.00
2022-10-30T13:05:12.861Z,3896.00
2022-10-30T13:06:12.816Z,2988.00
2022-10-30T13:08:16.737Z,3180.00
2022-10-30T13:09:16.702Z,3012.00
2022-10-30T13:11:20.635Z,2692.00
2022-10-30T13:12:20.588Z,2768.00
2022-10-30T13:14:24.517Z,2900.00
2022-10-30T13:15:24.472Z,3140.00
2022-10-30T13:17:28.401Z,2960.00
2022-10-30T13:18:28.357Z,3256.00
2022-10-30T13:20:32.272Z,3324.00
2022-10-30T13:21:32.339Z,3296.00
2022-10-30T13:23:36.174Z,3208.00
2022-10-30T13:24:36.133Z,3224.00
2022-10-30T13:26:28.972Z,2752.00
2022-10-30T13:27:28.938Z,2620.00
2022-10-30T13:29:32.868Z,2476.00
2022-10-30T13:30:32.824Z,2328.00
2022-10-30T13:32:36.745Z,2184.00
2022-10-30T13:33:36.711Z,2228.00
2022-10-30T13:35:40.647Z,2072.00
2022-10-30T13:36:40.701Z,2068.00
2022-10-30T13:38:44.518Z,1912.00
2022-10-30T13:39:44.486Z,1916.00
2022-10-30T13:41:48.411Z,1920.00
2022-10-30T13:42:48.367Z,1960.00
2022-10-30T13:44:52.292Z,2088.00
2022-10-30T13:45:52.261Z,2016.00
2022-10-30T13:47:56.384Z,1936.00
2022-10-30T13:48:56.154Z,1916.00
2022-10-30T13:51:00.086Z,1916.00
2022-10-30T13:52:00.036Z,1916.00
2022-10-30T13:54:03.976Z,1896.00
2022-10-30T13:55:03.946Z,1884.00
2022-10-30T13:57:09.146Z,1876.00
2022-10-30T13:58:08.892Z,1876.00
2022-10-30T13:59:08.868Z,1880.00
2022-10-30T14:00:08.839Z,1900.00
2022-10-30T14:01:08.876Z,1900.00
2022-10-30T14:02:08.873Z,1888.00
2022-10-30T14:03:08.861Z,1892.00
2022-10-30T14:04:08.975Z,1860.00
2022-10-30T14:05:08.762Z,1840.00
2022-10-30T14:06:08.708Z,1840.00
2022-10-30T14:07:08.656Z,1840.00
2022-10-30T14:08:08.662Z,1832.00
2022-10-30T14:09:08.596Z,1824.00
2022-10-30T14:10:08.570Z,1828.00
2022-10-30T14:11:08.588Z,1808.00
2022-10-30T14:12:08.517Z,1792.00
2022-10-30T14:13:08.483Z,1768.00
2022-10-30T14:14:08.458Z,1744.00
2022-10-30T14:15:08.493Z,1720.00
2022-10-30T14:16:08.451Z,1704.00
2022-10-30T14:17:08.499Z,1704.00
2022-10-30T14:18:08.353Z,1692.00
2022-10-30T14:19:08.328Z,1664.00
2022-10-30T14:20:13.736Z,1648.00
2022-10-30T14:21:08.278Z,1640.00
2022-10-30T14:22:08.243Z,1628.00
2022-10-30T14:23:08.220Z,1632.00
2022-10-30T14:24:08.187Z,1628.00
2022-10-30T14:25:08.222Z,1648.00
2022-10-30T14:26:08.137Z,1696.00
2022-10-30T14:27:08.117Z,1748.00
2022-10-30T14:28:08.086Z,1828.00
2022-10-30T14:29:08.057Z,1788.00
2022-10-30T14:30:08.026Z,1688.00
2022-10-30T14:31:08.000Z,1684.00
2022-10-30T14:32:08.004Z,1640.00
2022-10-30T14:33:07.942Z,1600.00
2022-10-30T14:34:07.923Z,1592.00
2022-10-30T14:35:07.892Z,1568.00
2022-10-30T14:36:07.864Z,1584.00
2022-10-30T14:37:07.835Z,1592.00
2022-10-30T14:38:07.847Z,1584.00
2022-10-30T14:39:07.787Z,1568.00
2022-10-30T14:40:07.817Z,1544.00
2022-10-30T14:41:11.161Z,1512.00
2022-10-30T14:42:07.694Z,1488.00
2022-10-30T14:43:07.669Z,1472.00
2022-10-30T14:44:07.642Z,1460.00
2022-10-30T14:45:07.612Z,1440.00
2022-10-30T14:46:07.604Z,1420.00
2022-10-30T14:47:07.561Z,1404.00
2022-10-30T14:48:07.534Z,1376.00
2022-10-30T14:49:07.505Z,1352.00
2022-10-30T14:50:07.475Z,1328.00
2022-10-30T14:51:07.468Z,1308.00
2022-10-30T14:52:07.421Z,1292.00
2022-10-30T14:53:07.394Z,1276.00
2022-10-30T14:54:07.368Z,1268.00
2022-10-30T14:55:07.339Z,1252.00
2022-10-30T14:56:07.386Z,1248.00
2022-10-30T14:57:07.284Z,1236.00
2022-10-30T14:58:07.254Z,1224.00
2022-10-30T14:59:07.230Z,1216.00
2022-10-30T15:00:07.206Z,1212.00
2022-10-30T15:01:07.227Z,1204.00
2022-10-30T15:02:07.343Z,1208.00
2022-10-30T15:03:07.115Z,1212.00
2022-10-30T15:04:07.088Z,1220.00
2022-10-30T15:05:09.547Z,1228.00
2022-10-30T15:06:07.094Z,1224.00
2022-10-30T15:07:07.012Z,1232.00
2022-10-30T15:08:07.213Z,1240.00
2022-10-30T15:09:06.963Z,1252.00
2022-10-30T15:10:06.923Z,1260.00
2022-10-30T15:11:06.898Z,1268.00
2022-10-30T15:12:06.872Z,1276.00
2022-10-30T15:13:07.294Z,1288.00
2022-10-30T15:14:12.502Z,1292.00
2022-10-30T15:15:07.061Z,1300.00
2022-10-30T15:16:06.766Z,1292.00
2022-10-30T15:17:06.726Z,1284.00
2022-10-30T15:18:06.698Z,1268.00
2022-10-30T15:19:06.671Z,1256.00
2022-10-30T15:20:06.646Z,1240.00
2022-10-30T15:21:06.616Z,1224.00
2022-10-30T15:22:06.590Z,1204.00
2022-10-30T15:23:06.563Z,1176.00
2022-10-30T15:24:06.531Z,1152.00
2022-10-30T15:25:06.495Z,1136.00
2022-10-30T15:26:09.526Z,1112.00
2022-10-30T15:27:06.457Z,1080.00
2022-10-30T15:28:06.417Z,1048.00
2022-10-30T15:29:06.390Z,1008.00
2022-10-30T15:30:06.380Z,976.00
2022-10-30T15:31:06.337Z,940.00
2022-10-30T15:32:06.309Z,908.00
2022-10-30T15:33:06.280Z,872.00
2022-10-30T15:34:06.250Z,840.00
2022-10-30T15:35:06.224Z,808.00
2022-10-30T15:36:06.195Z,772.00
2022-10-30T15:37:06.165Z,736.00
2022-10-30T15:38:06.138Z,700.00
2022-10-30T15:39:06.118Z,672.00
2022-10-30T15:40:06.080Z,636.00
2022-10-30T15:41:06.048Z,596.00
2022-10-30T15:42:06.028Z,564.00
2022-10-30T15:43:05.992Z,532.00
2022-10-30T15:44:06.152Z,500.00
2022-10-30T15:45:05.939Z,464.00
2022-10-30T15:46:05.908Z,436.00
2022-10-30T15:47:05.889Z,408.00
2022-10-30T15:48:05.851Z,384.00
2022-10-30T15:49:05.827Z,356.00
2022-10-30T15:50:05.806Z,336.00
2022-10-30T15:51:05.800Z,312.00
2022-10-30T15:52:05.745Z,300.00
2022-10-30T15:53:05.708Z,284.00
2022-10-30T15:54:05.683Z,268.00
2022-10-30T15:55:05.718Z,256.00
2022-10-30T15:56:05.626Z,240.00
2022-10-30T15:58:05.582Z,216.00
2022-10-30T15:59:05.543Z,204.00
2022-10-30T16:00:05.587Z,192.00
2022-10-30T16:01:05.542Z,176.00
2022-10-30T16:02:05.550Z,164.00
2022-10-30T16:03:05.435Z,148.00
2022-10-30T16:04:05.410Z,136.00
2022-10-30T16:05:05.367Z,128.00
2022-10-30T16:06:05.339Z,116.00
2022-10-30T16:07:05.309Z,112.00
2022-10-30T16:08:05.279Z,100.00
2022-10-30T16:09:05.252Z,92.00
2022-10-30T16:10:05.233Z,80.00
2022-10-30T16:11:05.199Z,72.00
2022-10-30T16:12:08.897Z,64.00
2022-10-30T16:13:05.142Z,56.00
2022-10-30T16:14:05.109Z,52.00
2022-10-30T16:15:05.082Z,44.00
2022-10-30T16:16:05.104Z,40.00
2022-10-30T16:17:05.019Z,36.00
2022-10-30T16:18:04.995Z,32.00
2022-10-30T16:19:04.972Z,32.00
2022-10-30T16:20:04.928Z,28.00
2022-10-30T16:21:04.908Z,24.00
2022-10-30T16:22:04.905Z,24.00
2022-10-30T16:23:04.839Z,20.00
2022-10-30T16:24:04.813Z,20.00
2022-10-30T16:25:04.811Z,12.00
2022-10-30T16:26:04.760Z,12.00
2022-10-30T16:27:04.733Z,8.00
2022-10-30T16:28:04.691Z,8.00
2022-10-30T16:29:04.664Z,8.00
2022-10-30T16:30:04.646Z,8.00
2022-10-30T16:31:04.608Z,4.00
2022-10-30T16:32:04.623Z,4.00
2022-10-30T16:33:04.584Z,4.00
2022-10-30T16:34:04.513Z,0.00
2022-10-30T16:35:04.490Z,4.00
2022-10-30T16:36:04.454Z,4.00
2022-10-30T16:37:04.428Z,0.00
2022-10-30T16:38:04.394Z,0.00
2022-10-30T16:39:04.378Z,0.00
2022-10-30T16:40:04.337Z,0.00
2022-10-30T16:41:04.309Z,0.00
2022-10-30T16:42:04.280Z,0.00
2022-10-30T16:43:04.249Z,0.00
2022-10-30T16:44:04.215Z,0.00
2022-10-30T16:45:04.216Z,0.00
2022-10-30T16:46:04.153Z,0.00
2022-10-30T16:47:04.124Z,0.00
2022-10-30T16:48:08.669Z,0.00
2022-10-30T16:49:04.071Z,0.00
2022-10-30T16:50:04.079Z,0.00
2022-10-30T16:51:04.010Z,0.00
2022-10-30T16:52:03.977Z,0.00
2022-10-30T16:53:03.962Z,0.00
2022-10-30T16:54:03.918Z,0.00
2022-10-30T16:55:03.892Z,0.00
2022-10-30T16:56:03.909Z,0.00
2022-10-30T16:57:03.832Z,0.00
2022-10-30T16:58:03.794Z,0.00
2022-10-30T16:59:03.773Z,0.00
2022-10-30T17:00:03.741Z,0.00
2022-10-30T17:01:03.743Z,0.00
2022-10-30T17:02:03.793Z,0.00
2022-10-30T17:03:03.641Z,0.00
2022-10-30T17:04:03.686Z,0.00
2022-10-30T17:05:03.898Z,0.00
2022-10-30T17:06:03.555Z,0.00
2022-10-30T17:07:03.523Z,0.00
2022-10-30T17:08:03.716Z,0.00
2022-10-30T17:09:03.466Z,0.00
2022-10-30T17:10:03.435Z,0.00
2022-10-30T17:11:03.403Z,0.00
2022-10-30T17:12:03.375Z,0.00
2022-10-30T17:13:03.342Z,0.00
2022-10-30T17:14:03.309Z,0.00
2022-10-30T17:15:03.286Z,0.00
2022-10-30T17:16:03.250Z,0.00
2022-10-30T17:17:03.224Z,0.00
2022-10-30T17:18:03.192Z,0.00
2022-10-30T17:19:03.160Z,0.00
2022-10-30T17:20:03.224Z,0.00
2022-10-30T17:21:03.224Z,0.00
2022-10-30T17:22:03.069Z,0.00
2022-10-30T17:23:03.052Z,0.00
2022-10-30T17:24:03.015Z,0.00
2022-10-30T17:25:02.978Z,0.00
2022-10-30T17:26:02.945Z,0.00
2022-10-30T17:27:02.920Z,0.00
2022-10-30T17:28:02.886Z,0.00
2022-10-30T17:29:02.854Z,0.00
2022-10-30T17:30:02.829Z,0.00
2022-10-30T17:31:02.800Z,0.00
2022-10-30T17:32:02.764Z,0.00
2022-10-30T17:33:03.291Z,0.00
2022-10-30T17:34:02.703Z,0.00
2022-10-30T17:35:02.671Z,0.00
2022-10-30T17:36:02.642Z,0.00
2022-10-30T17:37:02.623Z,0.00
2022-10-30T17:38:03.066Z,0.00
2022-10-30T17:39:02.558Z,0.00
2022-10-30T17:40:02.529Z,0.00
2022-10-30T17:41:02.522Z,0.00
2022-10-30T17:42:02.473Z,0.00
2022-10-30T17:43:02.426Z,0.00
2022-10-30T17:44:02.401Z,0.00
2022-10-30T17:45:02.379Z,0.00
2022-10-30T17:46:02.341Z,0.00
2022-10-30T17:47:02.313Z,0.00
2022-10-30T17:48:02.717Z,0.00
2022-10-30T17:49:02.243Z,0.00
2022-10-30T17:50:02.212Z,0.00
2022-10-30T17:51:02.182Z,0.00
2022-10-30T17:52:02.170Z,0.00
2022-10-30T17:53:02.362Z,0.00
2022-10-30T17:54:02.102Z,0.00
2022-10-30T17:55:02.069Z,0.00
2022-10-30T17:56:02.037Z,0.00
2022-10-30T17:57:02.000Z,0.00
2022-10-30T17:58:01.973Z,0.00
2022-10-30T17:59:01.943Z,0.00
2022-10-30T18:00:01.922Z,0.00
2022-10-30T18:01:01.931Z,0.00
2022-10-30T18:02:02.005Z,0.00
2022-10-30T18:03:02.327Z,0.00
2022-10-30T18:04:01.786Z,0.00
2022-10-30T18:05:01.787Z,0.00
2022-10-30T18:06:01.730Z,0.00
2022-10-30T18:07:01.753Z,0.00
2022-10-30T18:08:01.665Z,0.00
2022-10-30T18:09:01.631Z,0.00
2022-10-30T18:10:01.614Z,0.00
2022-10-30T18:11:01.575Z,0.00
2022-10-30T18:12:01.541Z,0.00
2022-10-30T18:13:01.953Z,0.00
2022-10-30T18:14:02.117Z,0.00
2022-10-30T18:15:01.450Z,0.00
2022-10-30T18:16:01.429Z,0.00
2022-10-30T18:17:01.388Z,0.00
2022-10-30T18:18:01.366Z,0.00
2022-10-30T18:19:01.337Z,0.00
2022-10-30T18:20:01.338Z,0.00
2022-10-30T18:21:01.266Z,0.00
2022-10-30T18:22:01.231Z,0.00
2022-10-30T18:23:01.638Z,0.00
2022-10-30T18:24:01.181Z,0.00
2022-10-30T18:25:01.144Z,0.00
2022-10-30T18:26:01.108Z,0.00
2022-10-30T18:27:01.078Z,0.00
2022-10-30T18:28:01.046Z,0.00
2022-10-30T18:29:01.034Z,0.00
2022-10-30T18:30:01.023Z,0.00
2022-10-30T18:31:00.968Z,0.00
2022-10-30T18:32:04.288Z,0.00
2022-10-30T18:33:01.304Z,0.00
2022-10-30T18:34:00.868Z,0.00
2022-10-30T18:35:00.834Z,0.00
2022-10-30T18:36:00.801Z,0.00
2022-10-30T18:37:00.772Z,0.00
2022-10-30T18:38:00.738Z,0.00
2022-10-30T18:39:00.708Z,0.00
2022-10-30T18:40:00.747Z,0.00
2022-10-30T18:41:01.449Z,0.00
2022-10-30T18:42:00.613Z,0.00
2022-10-30T18:43:01.124Z,0.00
2022-10-30T18:44:00.582Z,0.00
2022-10-30T18:45:00.522Z,0.00
2022-10-30T18:46:00.500Z,0.00
2022-10-30T18:47:03.209Z,0.00
2022-10-30T18:48:00.927Z,0.00
2022-10-30T18:49:00.398Z,0.00
2022-10-30T18:50:00.474Z,0.00
2022-10-30T18:51:00.335Z,0.00
2022-10-30T18:52:00.334Z,0.00
2022-10-30T18:53:00.337Z,0.00
2022-10-30T18:54:00.250Z,0.00
2022-10-30T18:55:00.216Z,0.00
2022-10-30T18:56:00.182Z,0.00
2022-10-30T18:57:00.159Z,0.00
2022-10-30T18:58:00.444Z,0.00
2022-10-30T18:59:01.913Z,0.00
2022-10-30T19:00:00.135Z,0.00
2022-10-30T19:01:11.487Z,0.00
2022-10-30T19:02:00.159Z,0.00
2022-10-30T19:02:59.992Z,0.00
2022-10-30T19:03:59.931Z,0.00
2022-10-30T19:04:59.903Z,0.00
2022-10-30T19:05:59.874Z,0.00
2022-10-30T19:06:59.845Z,0.00
2022-10-30T19:08:00.130Z,0.00
2022-10-30T19:08:59.789Z,0.00
2022-10-30T19:09:59.797Z,0.00
2022-10-30T19:10:59.727Z,0.00
2022-10-30T19:11:59.715Z,0.00
2022-10-30T19:13:16.331Z,0.00
2022-10-30T19:13:59.622Z,0.00
2022-10-30T19:14:59.593Z,0.00
2022-10-30T19:16:00.789Z,0.00
2022-10-30T19:16:59.525Z,0.00
2022-10-30T19:18:00.811Z,0.00
2022-10-30T19:18:59.474Z,0.00
2022-10-30T19:19:59.433Z,0.00
2022-10-30T19:21:10.281Z,0.00
2022-10-30T19:21:59.372Z,0.00
2022-10-30T19:22:59.744Z,0.00
2022-10-30T19:23:59.356Z,0.00
2022-10-30T19:24:59.281Z,0.00
2022-10-30T19:25:59.303Z,0.00
2022-10-30T19:26:59.263Z,0.00
2022-10-30T19:27:59.569Z,0.00
2022-10-30T19:28:59.157Z,0.00
2022-10-30T19:29:59.897Z,0.00
2022-10-30T19:30:59.114Z,0.00
2022-10-30T19:31:59.088Z,0.00
2022-10-30T19:32:59.029Z,0.00
2022-10-30T19:33:59.000Z,0.00
2022-10-30T19:34:58.966Z,0.00
2022-10-30T19:35:58.933Z,0.00
2022-10-30T19:36:58.918Z,0.00
2022-10-30T19:37:59.157Z,0.00
2022-10-30T19:39:00.803Z,0.00
2022-10-30T19:39:58.805Z,0.00
2022-10-30T19:40:58.786Z,0.00
2022-10-30T19:41:58.752Z,0.00
2022-10-30T19:42:59.029Z,0.00
2022-10-30T19:43:58.685Z,0.00
2022-10-30T19:44:58.656Z,0.00
2022-10-30T19:45:58.629Z,0.00
2022-10-30T19:46:58.595Z,0.00
2022-10-30T19:47:58.565Z,0.00
2022-10-30T19:48:59.521Z,0.00
2022-10-30T19:49:58.500Z,0.00
2022-10-30T19:50:58.474Z,0.00
2022-10-30T19:51:58.430Z,0.00
2022-10-30T19:52:58.766Z,0.00
2022-10-30T19:53:58.368Z,0.00
2022-10-30T19:54:58.350Z,0.00
2022-10-30T19:55:58.316Z,0.00
2022-10-30T19:56:58.272Z,0.00
2022-10-30T19:57:58.576Z,0.00
2022-10-30T19:58:58.208Z,0.00
2022-10-30T19:59:58.192Z,0.00
2022-10-30T20:00:58.267Z,0.00
2022-10-30T20:01:58.291Z,0.00
2022-10-30T20:02:58.087Z,0.00
2022-10-30T20:03:58.061Z,0.00
2022-10-30T20:04:58.025Z,0.00
2022-10-30T20:05:57.989Z,0.00
2022-10-30T20:07:02.257Z,0.00
2022-10-30T20:07:58.258Z,0.00
2022-10-30T20:08:57.894Z,0.00
2022-10-30T20:09:57.865Z,0.00
2022-10-30T20:10:57.836Z,0.00
2022-10-30T20:11:57.796Z,0.00
2022-10-30T20:12:57.779Z,0.00
2022-10-30T20:13:57.745Z,0.00
2022-10-30T20:14:57.717Z,0.00
2022-10-30T20:15:57.667Z,0.00
2022-10-30T20:16:57.641Z,0.00
2022-10-30T20:17:58.004Z,0.00
2022-10-30T20:18:57.567Z,0.00
2022-10-30T20:19:57.573Z,0.00
2022-10-30T20:20:57.534Z,0.00
2022-10-30T20:21:57.477Z,0.00
2022-10-30T20:22:57.446Z,0.00
2022-10-30T20:23:57.447Z,0.00
2022-10-30T20:24:57.374Z,0.00
2022-10-30T20:25:57.364Z,0.00
2022-10-30T20:26:57.376Z,0.00
2022-10-30T20:27:58.745Z,0.00
2022-10-30T20:28:57.253Z,0.00
2022-10-30T20:29:57.240Z,0.00
2022-10-30T20:30:57.198Z,0.00
2022-10-30T20:31:57.155Z,0.00
2022-10-30T20:32:57.425Z,0.00
2022-10-30T20:33:57.100Z,0.00
2022-10-30T20:34:57.061Z,0.00
2022-10-30T20:35:57.046Z,0.00
2022-10-30T20:36:56.991Z,0.00
2022-10-30T20:37:56.973Z,0.00
2022-10-30T20:38:56.937Z,0.00
2022-10-30T20:39:56.899Z,0.00
2022-10-30T20:40:56.912Z,0.00
2022-10-30T20:41:56.839Z,0.00
2022-10-30T20:42:59.883Z,0.00
2022-10-30T20:43:56.782Z,0.00
2022-10-30T20:44:56.741Z,0.00
2022-10-30T20:45:56.703Z,0.00
2022-10-30T20:46:57.417Z,0.00
2022-10-30T20:47:56.965Z,0.00
2022-10-30T20:48:56.621Z,0.00
2022-10-30T20:49:56.573Z,0.00
2022-10-30T20:50:56.545Z,0.00
2022-10-30T20:51:56.534Z,0.00
2022-10-30T20:52:56.484Z,0.00
2022-10-30T20:53:56.456Z,0.00
2022-10-30T20:54:56.439Z,0.00
2022-10-30T20:55:56.389Z,0.00
2022-10-30T20:56:56.348Z,0.00
2022-10-30T20:57:56.556Z,0.00
2022-10-30T20:58:56.292Z,0.00
2022-10-30T20:59:56.252Z,0.00
2022-10-30T21:00:56.243Z,0.00
2022-10-30T21:01:56.304Z,0.00
2022-10-30T21:02:56.160Z,0.00
2022-10-30T21:04:00.663Z,0.00
2022-10-30T21:04:56.100Z,0.00
2022-10-30T21:05:56.065Z,0.00
2022-10-30T21:06:56.038Z,0.00
2022-10-30T21:07:55.992Z,0.00
2022-10-30T21:08:55.961Z,0.00
2022-10-30T21:09:55.929Z,0.00
2022-10-30T21:10:55.896Z,0.00
2022-10-30T21:11:55.864Z,0.00
2022-10-30T21:12:55.838Z,0.00
2022-10-30T21:13:55.797Z,0.00
2022-10-30T21:14:55.766Z,0.00
2022-10-30T21:15:55.734Z,0.00
2022-10-30T21:16:55.698Z,0.00
2022-10-30T21:17:55.680Z,0.00
2022-10-30T21:18:56.424Z,0.00
2022-10-30T21:19:55.602Z,0.00
2022-10-30T21:20:55.568Z,0.00
2022-10-30T21:21:55.539Z,0.00
2022-10-30T21:22:55.506Z,0.00
2022-10-30T21:23:55.485Z,0.00
2022-10-30T21:24:55.441Z,0.00
2022-10-30T21:25:55.408Z,0.00
2022-10-30T21:26:55.370Z,0.00
2022-10-30T21:27:55.344Z,0.00
2022-10-30T21:28:55.308Z,0.00
2022-10-30T21:29:55.278Z,0.00
2022-10-30T21:30:55.249Z,0.00
2022-10-30T21:31:55.211Z,0.00
2022-10-30T21:32:55.180Z,0.00
2022-10-30T21:33:55.142Z,0.00
2022-10-30T21:34:55.140Z,0.00
2022-10-30T21:35:55.087Z,0.00
2022-10-30T21:36:55.051Z,0.00
2022-10-30T21:37:55.020Z,0.00
2022-10-30T21:38:54.982Z,0.00
2022-10-30T21:39:54.959Z,0.00
2022-10-30T21:40:54.924Z,0.00
2022-10-30T21:41:54.895Z,0.00
2022-10-30T21:42:57.368Z,0.00
2022-10-30T21:43:54.857Z,0.00
2022-10-30T21:44:54.782Z,0.00
2022-10-30T21:45:54.753Z,0.00
2022-10-30T21:46:54.755Z,0.00
2022-10-30T21:47:54.692Z,0.00
2022-10-30T21:48:54.659Z,0.00
2022-10-30T21:49:54.622Z,0.00
2022-10-30T21:50:54.588Z,0.00
2022-10-30T21:51:54.561Z,0.00
2022-10-30T21:52:54.528Z,0.00
2022-10-30T21:53:54.498Z,0.00
2022-10-30T21:54:54.459Z,0.00
2022-10-30T21:55:54.433Z,0.00
2022-10-30T21:56:54.405Z,0.00
2022-10-30T21:57:54.363Z,0.00
2022-10-30T21:58:54.339Z,0.00
2022-10-30T21:59:54.370Z,0.00
2022-10-30T22:00:54.296Z,0.00
2022-10-30T22:01:54.373Z,0.00
2022-10-30T22:02:54.220Z,0.00
2022-10-30T22:03:54.183Z,0.00
2022-10-30T22:04:54.131Z,0.00
2022-10-30T22:05:54.101Z,0.00
2022-10-30T22:06:54.070Z,0.00
2022-10-30T22:07:54.032Z,0.00
2022-10-30T22:08:53.996Z,0.00
2022-10-30T22:09:53.970Z,0.00
2022-10-30T22:10:53.937Z,0.00
2022-10-30T22:11:53.903Z,0.00
2022-10-30T22:12:53.873Z,0.00
2022-10-30T22:13:53.841Z,0.00
2022-10-30T22:14:53.820Z,0.00
2022-10-30T22:15:53.850Z,0.00
2022-10-30T22:16:53.732Z,0.00
2022-10-30T22:17:53.702Z,0.00
2022-10-30T22:18:53.709Z,0.00
2022-10-30T22:19:53.640Z,0.00
2022-10-30T22:20:53.601Z,0.00
2022-10-30T22:21:53.574Z,0.00
2022-10-30T22:22:53.584Z,0.00
2022-10-30T22:23:53.509Z,0.00
2022-10-30T22:24:53.477Z,0.00
2022-10-30T22:25:53.440Z,0.00
2022-10-30T22:26:53.415Z,0.00
2022-10-30T22:27:53.383Z,0.00
2022-10-30T22:28:53.344Z,0.00
2022-10-30T22:29:53.319Z,0.00
2022-10-30T22:30:53.276Z,0.00
2022-10-30T22:31:53.252Z,0.00
2022-10-30T22:32:53.259Z,0.00
2022-10-30T22:33:53.186Z,0.00
2022-10-30T22:34:53.151Z,0.00
2022-10-30T22:35:53.111Z,0.00
2022-10-30T22:36:53.077Z,0.00
2022-10-30T22:37:53.052Z,0.00
2022-10-30T22:38:53.014Z,0.00
2022-10-30T22:39:52.991Z,0.00
2022-10-30T22:40:52.947Z,0.00
2022-10-30T22:41:52.915Z,0.00
2022-10-30T22:42:52.877Z,0.00
2022-10-30T22:43:52.847Z,0.00
2022-10-30T22:44:52.813Z,0.00
2022-10-30T22:45:52.779Z,0.00
2022-10-30T22:46:52.756Z,0.00
2022-10-30T22:47:52.717Z,0.00
2022-10-30T22:48:52.754Z,0.00
2022-10-30T22:49:52.661Z,0.00
2022-10-30T22:50:52.618Z,0.00
2022-10-30T22:51:52.590Z,0.00
2022-10-30T22:52:52.554Z,0.00
2022-10-30T22:53:52.544Z,0.00
2022-10-30T22:54:52.486Z,0.00
2022-10-30T22:55:52.457Z,0.00
2022-10-30T22:56:52.422Z,0.00
2022-10-30T22:57:52.387Z,0.00
2022-10-30T22:58:52.358Z,0.00
2022-10-30T22:59:52.324Z,0.00
2022-10-30T23:00:52.289Z,0.00
2022-10-30T23:01:52.328Z,0.00
2022-10-30T23:02:52.268Z,0.00
2022-10-30T23:03:52.236Z,0.00
2022-10-30T23:04:52.159Z,0.00
2022-10-30T23:05:57.010Z,0.00
2022-10-30T23:06:52.103Z,0.00
2022-10-30T23:07:52.066Z,0.00
2022-10-30T23:08:52.033Z,0.00
2022-10-30T23:09:51.996Z,0.00
2022-10-30T23:10:51.964Z,0.00
2022-10-30T23:11:51.932Z,0.00
2022-10-30T23:12:51.894Z,0.00
2022-10-30T23:13:51.897Z,0.00
2022-10-30T23:14:51.833Z,0.00
2022-10-30T23:15:51.791Z,0.00
2022-10-30T23:16:51.774Z,0.00
2022-10-30T23:17:51.726Z,0.00
2022-10-30T23:18:51.697Z,0.00
2022-10-30T23:19:51.663Z,0.00
2022-10-30T23:20:51.637Z,0.00
2022-10-30T23:21:51.596Z,0.00
2022-10-30T23:22:51.579Z,0.00
2022-10-30T23:23:51.567Z,0.00
2022-10-30T23:24:51.498Z,0.00
2022-10-30T23:25:51.476Z,0.00
2022-10-30T23:26:51.432Z,0.00
2022-10-30T23:27:51.401Z,0.00
2022-10-30T23:28:51.361Z,0.00
2022-10-30T23:29:51.334Z,0.00
2022-10-30T23:30:51.300Z,0.00
2022-10-30T23:31:51.273Z,0.00
2022-10-30T23:32:51.233Z,0.00
2022-10-30T23:33:51.205Z,0.00
2022-10-30T23:34:51.179Z,0.00
2022-10-30T23:35:51.143Z,0.00
2022-10-30T23:36:51.100Z,0.00
2022-10-30T23:37:51.075Z,0.00
2022-10-30T23:38:51.038Z,0.00
2022-10-30T23:39:51.003Z,0.00
2022-10-30T23:40:50.973Z,0.00
2022-10-30T23:41:50.935Z,0.00
2022-10-30T23:42:50.905Z,0.00
2022-10-30T23:43:50.872Z,0.00
2022-10-30T23:44:50.854Z,0.00
2022-10-30T23:45:50.804Z,0.00
2022-10-30T23:46:50.778Z,0.00
2022-10-30T23:47:50.739Z,0.00
2022-10-30T23:48:50.719Z,0.00
2022-10-30T23:49:50.672Z,0.00
2022-10-30T23:50:50.637Z,0.00
2022-10-30T23:51:50.607Z,0.00